Time;durP1;ratioP1;P1;durP2;ratioP2;P2;SDS_P1;SDS_P2;PMS_P1;PMS_P2;Temp;Humidity;BMP_temperature;BMP_pressure;BME280_temperature;BME280_humidity;BME280_pressure;Samples;Min_cycle;Max_cycle;Signal;HPM_P1;HPM_P2
2021/08/23 00:01:24;;;;;;;26.05;12.55;;;;;;;12.06;91.63;99810.94;1720174;82;21414;-72
2021/08/23 00:03:59;;;;;;;24.85;12.00;;;;;;;12.02;91.76;99806.63;1732922;81;21525;-72
2021/08/23 00:06:34;;;;;;;26.10;12.63;;;;;;;11.99;91.89;99805.09;1722007;81;20967;-73
2021/08/23 00:09:06;;;;;;;21.25;12.55;;;;;;;11.98;91.97;99802.09;1710553;82;20978;-73
2021/08/23 00:11:40;;;;;;;23.35;11.53;;;;;;;11.95;92.17;99805.48;1722539;82;20869;-73
2021/08/23 00:14:15;;;;;;;25.23;13.62;;;;;;;11.90;92.30;99809.99;1715337;82;20939;-73
2021/08/23 00:16:48;;;;;;;21.05;12.15;;;;;;;11.89;92.28;99802.87;1724630;80;20924;-73
2021/08/23 00:19:21;;;;;;;22.07;13.78;;;;;;;11.87;92.23;99801.56;1719223;82;20900;-73
2021/08/23 00:22:00;;;;;;;30.30;13.72;;;;;;;11.83;92.53;99802.76;1758438;80;21418;-73
2021/08/23 00:24:25;;;;;;;26.20;14.03;;;;;;;11.82;92.61;99809.39;1737533;80;20911;-73
2021/08/23 00:26:59;;;;;;;26.25;13.48;;;;;;;11.79;92.58;99803.71;1738386;81;20945;-72
2021/08/23 00:29:34;;;;;;;26.33;13.25;;;;;;;11.77;92.68;99802.66;1737634;80;20979;-72
2021/08/23 00:32:16;;;;;;;30.00;14.58;;;;;;;11.75;92.66;99799.38;1746966;80;20983;-74
2021/08/23 00:34:46;;;;;;;26.55;12.68;;;;;;;11.74;92.85;99803.82;1751547;80;21011;-73
2021/08/23 00:37:18;;;;;;;23.30;13.43;;;;;;;11.73;92.95;99795.32;1731988;81;22339;-73
2021/08/23 00:39:50;;;;;;;26.37;13.40;;;;;;;11.73;92.97;99800.26;1722528;82;20985;-73
2021/08/23 00:42:23;;;;;;;24.52;12.82;;;;;;;11.71;92.89;99798.39;1747422;80;20915;-73
2021/08/23 00:44:53;;;;;;;26.40;13.20;;;;;;;11.70;92.87;99800.89;1757941;80;21118;-74
2021/08/23 00:47:26;;;;;;;24.70;12.53;;;;;;;11.69;92.88;99792.39;1749692;80;20953;-73
2021/08/23 00:49:57;;;;;;;23.47;12.73;;;;;;;11.67;92.98;99793.84;1752407;80;21151;-72
2021/08/23 00:52:27;;;;;;;24.23;12.63;;;;;;;11.65;93.00;99792.78;1751932;80;21470;-72
2021/08/23 00:54:55;;;;;;;27.77;14.07;;;;;;;11.64;93.13;99796.66;1750660;80;20924;-73
2021/08/23 00:57:25;;;;;;;27.58;13.58;;;;;;;11.62;93.07;99798.10;1714026;80;20908;-73
2021/08/23 00:59:54;;;;;;;28.75;12.88;;;;;;;11.59;93.09;99797.61;1747723;80;20959;-74
2021/08/23 01:02:55;;;;;;;26.20;13.43;;;;;;;11.56;93.19;99801.55;1714191;81;20928;-74
2021/08/23 01:05:32;;;;;;;31.12;13.88;;;;;;;11.53;93.48;99797.53;1697238;81;20943;-73
2021/08/23 01:08:11;;;;;;;28.38;13.98;;;;;;;11.52;93.51;99795.91;1662334;84;21089;-73
2021/08/23 01:10:53;;;;;;;34.65;13.38;;;;;;;11.51;93.69;99797.59;1712415;82;20951;-73
2021/08/23 01:13:27;;;;;;;23.57;12.95;;;;;;;11.49;93.82;99785.53;1761652;80;21495;-73
2021/08/23 01:15:57;;;;;;;29.82;13.32;;;;;;;11.48;93.71;99788.03;1769792;80;22411;-74
2021/08/23 01:18:30;;;;;;;30.60;14.73;;;;;;;11.46;93.70;99788.11;1771766;80;20840;-74
2021/08/23 01:21:00;;;;;;;29.70;15.63;;;;;;;11.45;94.05;99788.67;1767741;80;20881;-73
2021/08/23 01:23:31;;;;;;;32.48;16.10;;;;;;;11.47;94.61;99791.10;1745911;80;21474;-73
2021/08/23 01:25:59;;;;;;;33.20;17.30;;;;;;;11.52;95.17;99795.91;1724264;80;20959;-73
2021/08/23 01:29:00;;;;;;;33.92;16.55;;;;;;;11.58;95.43;99797.92;1733944;80;20970;-73
2021/08/23 01:31:54;;;;;;;29.23;14.53;;;;;;;11.61;95.79;99790.41;1764239;80;21460;-73
2021/08/23 01:34:27;;;;;;;25.15;13.62;;;;;;;11.65;95.48;99792.78;1734748;81;20958;-73
2021/08/23 01:36:58;;;;;;;34.98;14.58;;;;;;;11.61;94.87;99789.04;1740203;81;21498;-75
2021/08/23 01:39:32;;;;;;;33.58;15.25;;;;;;;11.56;94.54;99793.30;1745224;81;20958;-74
2021/08/23 01:41:58;;;;;;;32.95;13.45;;;;;;;11.51;94.26;99787.97;1725886;82;21085;-74
2021/08/23 01:44:28;;;;;;;28.98;14.03;;;;;;;11.47;94.16;99793.84;1730980;81;21033;-74
2021/08/23 01:46:56;;;;;;;33.15;14.28;;;;;;;11.43;94.06;99791.48;1745984;80;20941;-74
2021/08/23 01:49:27;;;;;;;36.83;15.32;;;;;;;11.39;94.14;99788.55;1751765;80;20932;-74
2021/08/23 01:51:55;;;;;;;29.00;14.98;;;;;;;11.36;94.10;99800.73;1763865;81;20897;-73
2021/08/23 01:54:24;;;;;;;26.62;13.65;;;;;;;11.32;94.12;99793.69;1738909;80;21143;-73
2021/08/23 01:56:58;;;;;;;31.75;14.93;;;;;;;11.28;94.10;99790.50;1748287;81;20920;-72
2021/08/23 01:59:30;;;;;;;30.50;15.23;;;;;;;11.24;94.14;99786.20;1760383;80;21589;-71
2021/08/23 02:02:02;;;;;;;23.67;13.72;;;;;;;11.19;94.19;99785.77;1718120;80;20997;-72
2021/08/23 02:04:33;;;;;;;31.62;14.33;;;;;;;11.15;94.26;99783.95;1727946;82;20936;-71
2021/08/23 02:07:05;;;;;;;29.42;13.20;;;;;;;11.13;94.39;99788.39;1689478;83;21833;-73
2021/08/23 02:09:36;;;;;;;29.30;14.20;;;;;;;11.10;94.52;99789.02;1656006;84;21569;-72
2021/08/23 02:12:05;;;;;;;27.35;13.80;;;;;;;11.10;94.58;99790.95;1680288;83;20955;-72
2021/08/23 02:14:38;;;;;;;26.40;13.80;;;;;;;11.08;94.53;99789.89;1709846;83;20998;-71
2021/08/23 02:17:10;;;;;;;23.83;13.50;;;;;;;11.06;94.47;99788.02;1681475;83;21495;-72
2021/08/23 02:19:41;;;;;;;24.65;12.28;;;;;;;11.05;94.51;99787.77;1725918;82;21247;-71
2021/08/23 02:22:13;;;;;;;27.50;14.07;;;;;;;11.03;94.40;99788.64;1706458;83;20944;-71
2021/08/23 02:24:40;;;;;;;27.17;13.40;;;;;;;11.00;94.44;99785.15;1731862;82;20985;-71
2021/08/23 02:27:10;;;;;;;27.90;13.10;;;;;;;10.97;94.44;99788.55;1722641;82;20853;-71
2021/08/23 02:29:37;;;;;;;33.10;13.50;;;;;;;10.95;94.41;99788.05;1676527;83;20897;-71
2021/08/23 02:32:07;;;;;;;27.48;13.80;;;;;;;10.92;94.53;99794.17;1683302;83;21817;-71
2021/08/23 02:34:40;;;;;;;27.00;13.90;;;;;;;10.89;94.64;99796.16;1719225;81;21463;-71
2021/08/23 02:37:14;;;;;;;29.98;13.75;;;;;;;10.86;94.95;99800.34;1734016;82;21415;-74
2021/08/23 02:39:44;;;;;;;27.90;13.72;;;;;;;10.88;95.43;99808.27;1722887;82;20905;-74
2021/08/23 02:42:18;;;;;;;24.98;13.15;;;;;;;10.88;95.48;99804.16;1675706;82;21666;-73
2021/08/23 02:44:47;;;;;;;25.75;12.53;;;;;;;10.87;95.51;99806.65;1691054;82;20860;-72
2021/08/23 02:47:18;;;;;;;32.77;14.43;;;;;;;10.84;95.37;99800.41;1695981;82;21035;-72
2021/08/23 02:49:51;;;;;;;26.05;13.93;;;;;;;10.79;95.37;99796.41;1731489;82;20880;-73
2021/08/23 02:52:19;;;;;;;25.02;13.05;;;;;;;10.76;95.42;99803.33;1732592;82;28501;-73
2021/08/23 02:54:52;;;;;;;27.25;14.15;;;;;;;10.73;95.66;99805.88;1707187;83;21446;-72
2021/08/23 02:57:26;;;;;;;26.95;14.15;;;;;;;10.71;95.61;99806.75;1693501;83;20954;-72
2021/08/23 02:59:56;;;;;;;23.40;13.50;;;;;;;10.68;95.70;99808.75;1667722;84;20968;-73
2021/08/23 03:02:28;;;;;;;26.05;13.25;;;;;;;10.66;95.74;99807.69;1701303;83;20917;-72
2021/08/23 03:04:59;;;;;;;28.12;13.93;;;;;;;10.65;95.66;99806.62;1709528;83;20921;-72
2021/08/23 03:07:30;;;;;;;23.87;13.50;;;;;;;10.63;95.64;99801.44;1679659;82;20993;-73
2021/08/23 03:10:02;;;;;;;34.20;15.23;;;;;;;10.63;95.81;99810.23;1711690;83;21119;-73
2021/08/23 03:12:30;;;;;;;26.93;14.00;;;;;;;10.63;96.22;99809.67;1717033;83;20993;-74
2021/08/23 03:15:03;;;;;;;27.93;14.10;;;;;;;10.65;96.30;99809.37;1711914;83;20918;-74
2021/08/23 03:17:30;;;;;;;22.70;13.62;;;;;;;10.66;96.37;99810.98;1700026;83;20921;-74
2021/08/23 03:19:57;;;;;;;24.00;13.40;;;;;;;10.65;96.48;99810.73;1729597;82;20988;-75
2021/08/23 03:22:25;;;;;;;25.43;13.62;;;;;;;10.67;96.55;99811.24;1717875;82;21731;-75
2021/08/23 03:24:55;;;;;;;26.10;12.80;;;;;;;10.68;96.67;99812.30;1691039;83;20889;-75
2021/08/23 03:27:27;;;;;;;28.85;13.40;;;;;;;10.69;96.76;99814.49;1702871;83;21610;-75
2021/08/23 03:29:55;;;;;;;28.07;14.55;;;;;;;10.70;96.88;99814.18;1698824;83;20965;-75
2021/08/23 03:32:26;;;;;;;22.40;12.90;;;;;;;10.73;97.01;99819.61;1709527;83;20938;-74
2021/08/23 03:34:57;;;;;;;22.75;12.23;;;;;;;10.76;97.09;99826.67;1684789;83;20932;-74
2021/08/23 03:37:25;;;;;;;25.10;13.18;;;;;;;10.77;97.06;99826.92;1710040;83;20919;-74
2021/08/23 03:39:54;;;;;;;26.82;13.05;;;;;;;10.79;97.04;99823.30;1692132;83;20978;-75
2021/08/23 03:42:28;;;;;;;25.68;13.85;;;;;;;10.80;97.17;99826.30;1702689;82;21066;-76
2021/08/23 03:44:58;;;;;;;24.15;14.47;;;;;;;10.85;97.69;99824.00;1702447;82;21459;-76
2021/08/23 03:47:32;;;;;;;23.85;13.88;;;;;;;10.93;97.83;99825.20;1723988;82;22266;-74
2021/08/23 03:50:03;;;;;;;27.75;13.53;;;;;;;11.00;97.82;99823.61;1670043;82;20972;-74
2021/08/23 03:52:33;;;;;;;29.85;13.62;;;;;;;11.04;97.84;99814.18;1732391;82;21027;-73
2021/08/23 03:55:10;;;;;;;23.30;13.50;;;;;;;11.09;98.02;99823.67;1733759;82;21001;-71
2021/08/23 03:57:38;;;;;;;28.47;12.82;;;;;;;11.15;98.32;99825.17;1730364;81;21546;-71
2021/08/23 04:00:08;;;;;;;24.47;13.43;;;;;;;11.24;98.69;99826.86;1755753;80;21126;-71
2021/08/23 04:02:41;;;;;;;29.55;13.85;;;;;;;11.33;98.89;99824.73;1763859;80;20877;-71
2021/08/23 04:05:09;;;;;;;29.42;14.18;;;;;;;11.42;99.14;99829.16;1727087;80;21246;-72
2021/08/23 04:07:40;;;;;;;25.90;14.63;;;;;;;11.51;99.34;99830.58;1724634;81;20910;-72
2021/08/23 04:10:11;;;;;;;30.50;14.95;;;;;;;11.61;99.59;99824.79;1765354;80;21007;-72
2021/08/23 04:12:43;;;;;;;34.90;14.60;;;;;;;11.70;99.77;99824.27;1739505;81;20968;-72
2021/08/23 04:15:16;;;;;;;31.62;15.55;;;;;;;11.80;100.00;99824.03;1763212;80;20975;-71
2021/08/23 04:17:42;;;;;;;31.77;15.48;;;;;;;11.94;100.00;99823.92;1733296;80;21592;-72
2021/08/23 04:20:13;;;;;;;32.33;16.57;;;;;;;12.08;100.00;99829.31;1753429;80;20991;-72
2021/08/23 04:22:45;;;;;;;36.20;16.40;;;;;;;12.21;100.00;99825.04;1775249;79;21064;-72
2021/08/23 04:25:16;;;;;;;29.45;16.35;;;;;;;12.36;100.00;99827.91;1754109;80;21483;-73
2021/08/23 04:27:48;;;;;;;34.53;15.75;;;;;;;12.51;100.00;99821.14;1759643;80;20920;-72
2021/08/23 04:30:20;;;;;;;30.50;15.88;;;;;;;12.64;100.00;99827.64;1763748;80;21051;-73
2021/08/23 04:32:52;;;;;;;35.05;17.98;;;;;;;12.76;100.00;99826.41;1764831;80;20936;-74
2021/08/23 04:35:24;;;;;;;38.75;18.30;;;;;;;12.87;100.00;99824.95;1759045;80;20971;-73
2021/08/23 04:37:56;;;;;;;36.53;19.65;;;;;;;13.02;100.00;99821.71;1755645;80;21089;-73
2021/08/23 04:40:29;;;;;;;33.42;18.52;;;;;;;13.20;100.00;99815.65;1763713;80;20845;-77
2021/08/23 04:43:01;;;;;;;37.38;18.07;;;;;;;13.36;100.00;99813.97;1761164;80;20896;-76
2021/08/23 04:45:32;;;;;;;37.67;18.15;;;;;;;13.57;100.00;99818.80;1711182;81;21078;-77
2021/08/23 04:48:01;;;;;;;32.75;17.70;;;;;;;13.77;99.46;99818.89;1680980;84;20951;-73
2021/08/23 04:50:33;;;;;;;30.68;16.37;;;;;;;13.99;98.62;99830.22;1694406;83;21163;-73
2021/08/23 04:53:04;;;;;;;30.52;15.58;;;;;;;14.19;97.80;99827.29;1674552;83;21492;-74
2021/08/23 04:55:35;;;;;;;31.57;16.05;;;;;;;14.42;97.27;99823.13;1692010;83;20928;-76
2021/08/23 04:58:03;;;;;;;27.62;14.38;;;;;;;14.66;96.80;99821.08;1694345;83;21464;-77
2021/08/23 05:00:33;;;;;;;25.75;14.73;;;;;;;14.91;96.56;99819.27;1693373;83;20952;-76
2021/08/23 05:03:06;;;;;;;26.23;15.18;;;;;;;15.22;95.22;99816.61;1678974;83;20912;-76
2021/08/23 05:05:34;;;;;;;25.90;14.55;;;;;;;15.48;94.00;99810.24;1698346;84;20992;-75
2021/08/23 05:08:04;;;;;;;29.00;13.65;;;;;;;15.68;93.47;99805.22;1697040;84;20992;-76
2021/08/23 05:10:38;;;;;;;25.45;15.05;;;;;;;15.84;93.65;99810.89;1673288;83;21003;-73
2021/08/23 05:13:08;;;;;;;25.02;14.80;;;;;;;16.00;93.56;99809.06;1697458;83;21452;-75
2021/08/23 05:15:37;;;;;;;30.37;15.70;;;;;;;16.16;93.60;99814.73;1694528;84;21180;-75
2021/08/23 05:18:09;;;;;;;28.77;16.93;;;;;;;16.34;93.43;99816.66;1704598;83;20916;-73
2021/08/23 05:20:46;;;;;;;32.70;16.30;;;;;;;16.56;93.04;99819.52;1688286;83;21061;-77
2021/08/23 05:23:17;;;;;;;28.32;16.30;;;;;;;16.79;92.18;99820.63;1683822;83;20936;-77
2021/08/23 05:25:49;;;;;;;39.23;19.55;;;;;;;17.04;90.74;99819.98;1693748;83;21010;-72
2021/08/23 05:28:23;;;;;;;38.80;19.23;;;;;;;17.23;89.51;99820.14;1684512;83;21233;-72
2021/08/23 05:30:55;;;;;;;35.60;20.05;;;;;;;17.35;87.77;99815.09;1692890;83;20908;-73
2021/08/23 05:33:24;;;;;;;32.83;17.80;;;;;;;17.45;86.71;99814.58;1710507;83;21450;-72
2021/08/23 05:35:54;;;;;;;27.93;16.67;;;;;;;17.53;85.89;99809.45;1703709;82;20936;-72
2021/08/23 05:38:26;;;;;;;;;;;;;;;17.63;85.21;99809.50;1698331;82;21038;-73
2021/08/23 05:41:00;;;;;;;23.32;13.75;;;;;;;17.72;85.34;99811.56;1693678;82;20600;-73
2021/08/23 05:43:29;;;;;;;25.60;14.47;;;;;;;17.78;83.97;99808.75;1684290;83;21005;-73
2021/08/23 05:46:00;;;;;;;27.42;14.90;;;;;;;17.80;83.37;99816.95;1713317;83;20947;-73
2021/08/23 05:48:30;;;;;;;22.55;14.50;;;;;;;17.80;82.57;99811.39;1654985;84;21075;-74
2021/08/23 05:51:02;;;;;;;26.57;16.55;;;;;;;17.83;82.08;99814.62;1668619;84;20979;-71
2021/08/23 05:53:30;;;;;;;28.10;15.55;;;;;;;17.84;82.29;99814.27;1622728;84;21114;-73
2021/08/23 05:56:06;;;;;;;32.85;17.10;;;;;;;17.82;82.36;99813.81;1686185;83;21474;-75
2021/08/23 05:58:36;;;;;;;;;;;;;;;17.78;82.59;99817.89;1711383;83;20972;-74
2021/08/23 06:01:08;;;;;;;21.97;13.45;;;;;;;17.73;82.93;99811.20;1702447;83;20144;-73
2021/08/23 06:03:36;;;;;;;20.17;12.28;;;;;;;17.66;82.90;99811.60;1681639;83;20939;-75
2021/08/23 06:06:09;;;;;;;23.38;12.35;;;;;;;17.55;82.35;99819.61;1733554;81;21102;-73
2021/08/23 06:08:45;;;;;;;27.73;12.10;;;;;;;17.44;82.03;99817.94;1714909;82;20944;-73
2021/08/23 06:11:17;;;;;;;17.02;10.32;;;;;;;17.37;82.47;99811.37;1727753;82;20885;-73
2021/08/23 06:13:46;;;;;;;19.67;10.90;;;;;;;17.32;82.66;99814.44;1736913;81;21482;-74
2021/08/23 06:16:18;;;;;;;19.92;11.10;;;;;;;17.28;83.04;99819.08;1736313;81;21020;-74
2021/08/23 06:18:43;;;;;;;23.45;11.00;;;;;;;17.34;83.77;99819.02;1738954;81;21498;-72
2021/08/23 06:21:15;;;;;;;21.12;11.35;;;;;;;17.46;84.00;99815.61;1754324;80;21778;-72
2021/08/23 06:23:46;;;;;;;23.20;12.30;;;;;;;17.62;84.71;99814.25;1744168;80;20974;-72
2021/08/23 06:26:16;;;;;;;17.25;11.43;;;;;;;17.86;84.86;99808.35;1769127;79;20905;-73
2021/08/23 06:28:44;;;;;;;18.23;10.48;;;;;;;18.05;82.13;99812.58;1799682;79;20892;-71
2021/08/23 06:31:16;;;;;;;21.55;10.10;;;;;;;18.20;81.30;99810.37;1800557;79;22787;-72
2021/08/23 06:33:50;;;;;;;17.55;10.88;;;;;;;18.31;79.73;99807.85;1764109;79;21141;-70
2021/08/23 06:36:19;;;;;;;22.65;10.28;;;;;;;18.48;80.03;99811.02;1741893;79;20992;-72
2021/08/23 06:38:53;;;;;;;20.05;10.53;;;;;;;18.70;80.12;99810.95;1749636;80;20971;-70
2021/08/23 06:41:22;;;;;;;17.35;10.40;;;;;;;18.98;78.90;99811.34;1754637;80;21086;-70
2021/08/23 06:43:52;;;;;;;19.65;10.20;;;;;;;19.20;77.42;99806.41;1717731;81;20983;-70
2021/08/23 06:46:26;;;;;;;19.85;11.55;;;;;;;19.35;76.90;99808.89;1749592;80;21475;-71
2021/08/23 06:48:57;;;;;;;21.62;10.78;;;;;;;19.52;76.53;99806.27;1770120;80;20849;-70
2021/08/23 06:51:35;;;;;;;14.45;9.65;;;;;;;19.68;76.67;99809.13;1751085;79;21582;-71
2021/08/23 06:54:09;;;;;;;16.30;10.05;;;;;;;19.81;73.91;99803.38;1791398;79;21027;-70
2021/08/23 06:56:42;;;;;;;16.65;9.70;;;;;;;19.90;73.54;99802.55;1759448;80;21497;-72
2021/08/23 06:59:10;;;;;;;17.02;9.78;;;;;;;20.04;73.71;99802.20;1765692;80;21517;-77
2021/08/23 07:01:45;;;;;;;25.72;9.93;;;;;;;20.25;73.54;99804.50;1777713;80;21018;-70
2021/08/23 07:04:14;;;;;;;15.38;9.20;;;;;;;20.44;71.26;99805.83;1759584;80;21538;-70
2021/08/23 07:06:44;;;;;;;16.87;8.70;;;;;;;20.54;69.79;99803.58;1764153;80;20927;-70
2021/08/23 07:09:16;;;;;;;16.95;8.83;;;;;;;20.62;68.78;99806.69;1751259;80;21467;-72
2021/08/23 07:11:48;;;;;;;16.60;10.20;;;;;;;20.72;68.66;99801.84;1745862;80;20957;-72
2021/08/23 07:14:21;;;;;;;14.70;8.23;;;;;;;20.89;69.44;99804.05;1726890;81;20926;-71
2021/08/23 07:16:52;;;;;;;;;;;;;;;21.09;67.93;99801.31;1716466;81;20983;-72
2021/08/23 07:19:16;;;;;;;10.15;5.60;;;;;;;21.29;66.34;99802.58;1745006;80;20455;-71
2021/08/23 07:21:51;;;;;;;10.58;5.75;;;;;;;21.40;61.36;99799.28;1737247;81;20917;-72
2021/08/23 07:24:19;;;;;;;9.85;5.87;;;;;;;21.45;60.73;99803.72;1716112;82;21546;-72
2021/08/23 07:26:47;;;;;;;8.98;5.28;;;;;;;21.54;61.55;99807.02;1724752;81;20908;-71
2021/08/23 07:29:20;;;;;;;7.90;5.08;;;;;;;21.71;60.43;99811.98;1700834;82;21004;-71
2021/08/23 07:31:51;;;;;;;8.53;5.70;;;;;;;21.86;59.76;99815.72;1734300;81;20896;-72
2021/08/23 07:34:25;;;;;;;9.88;5.80;;;;;;;21.99;58.28;99817.01;1707320;82;21126;-72
2021/08/23 07:36:54;;;;;;;9.05;5.53;;;;;;;22.01;58.82;99824.41;1733445;81;21121;-72
2021/08/23 07:39:31;;;;;;;17.17;7.22;;;;;;;22.08;57.42;99828.70;1739105;82;20872;-73
2021/08/23 07:42:01;;;;;;;13.90;6.60;;;;;;;22.15;59.01;99826.56;1754499;80;20941;-75
2021/08/23 07:44:33;;;;;;;;;;;;;;;22.33;58.91;99826.92;1730464;82;21003;-75
2021/08/23 07:47:03;;;;;;;14.80;5.78;;;;;;;22.65;58.45;99823.52;1721056;82;20941;-72
2021/08/23 07:49:29;;;;;;;7.28;5.42;;;;;;;23.03;56.80;99827.16;1739831;81;21006;-69
2021/08/23 07:52:00;;;;;;;13.20;6.17;;;;;;;23.36;56.10;99827.47;1704443;82;20995;-72
2021/08/23 07:54:40;;;;;;;16.23;8.58;;;;;;;23.69;54.84;99829.16;1696740;83;28184;-71
2021/08/23 07:56:59;;;;;;;9.65;5.50;;;;;;;24.08;53.61;99822.81;1705811;83;21043;-72
2021/08/23 07:59:30;;;;;;;9.90;5.60;;;;;;;24.45;52.21;99817.39;1711551;83;22083;-72
2021/08/23 08:01:59;;;;;;;16.25;5.20;;;;;;;24.80;51.58;99817.94;1698807;83;20968;-70
2021/08/23 08:04:29;;;;;;;6.22;4.62;;;;;;;25.15;50.21;99815.62;1658251;83;21050;-72
2021/08/23 08:06:58;;;;;;;6.80;4.30;;;;;;;25.34;46.70;99819.34;1723892;82;20980;-72
2021/08/23 08:09:29;;;;;;;11.38;5.08;;;;;;;25.46;47.58;99819.45;1710656;82;20956;-74
2021/08/23 08:11:59;;;;;;;6.75;4.70;;;;;;;25.80;46.40;99812.05;1673177;83;21218;-73
2021/08/23 08:14:29;;;;;;;12.28;5.03;;;;;;;26.01;44.81;99812.48;1679673;85;20950;-87
2021/08/23 08:17:03;;;;;;;16.10;4.50;;;;;;;26.09;45.88;99812.62;1669909;85;20901;-75
2021/08/23 08:19:36;;;;;;;6.03;4.10;;;;;;;26.31;46.53;99817.49;1682935;83;20917;-71
2021/08/23 08:22:09;;;;;;;6.00;4.33;;;;;;;26.65;45.69;99810.50;1668955;85;20909;-70
2021/08/23 08:24:39;;;;;;;20.30;5.60;;;;;;;26.90;42.76;99814.45;1668211;84;21593;-74
2021/08/23 08:27:14;;;;;;;13.50;5.58;;;;;;;26.88;43.22;99811.27;1681605;83;21095;-74
2021/08/23 08:29:42;;;;;;;11.85;5.72;;;;;;;26.78;42.91;99813.59;1687723;83;21034;-75
2021/08/23 08:32:13;;;;;;;7.55;4.40;;;;;;;26.69;44.49;99810.47;1705988;82;20893;-76
2021/08/23 08:34:49;;;;;;;5.70;4.45;;;;;;;26.87;43.92;99812.48;1728883;82;21095;-77
2021/08/23 08:37:21;;;;;;;10.18;4.42;;;;;;;27.11;43.00;99819.88;1706551;83;21027;-76
2021/08/23 08:39:53;;;;;;;6.40;4.22;;;;;;;27.25;42.86;99821.69;1734183;82;21035;-79
2021/08/23 08:42:26;;;;;;;5.62;4.20;;;;;;;27.35;42.92;99819.34;1707114;83;21030;-77
2021/08/23 08:44:56;;;;;;;11.95;4.55;;;;;;;27.38;42.08;99814.88;1726889;82;21197;-76
2021/08/23 08:47:29;;;;;;;7.40;4.00;;;;;;;27.38;41.98;99812.06;1729945;82;20993;-79
2021/08/23 08:50:06;;;;;;;7.72;3.95;;;;;;;27.39;40.58;99817.89;1740710;81;21148;-79
2021/08/23 08:52:36;;;;;;;4.58;3.58;;;;;;;27.27;40.64;99822.06;1727592;81;20985;-79
2021/08/23 08:55:05;;;;;;;7.90;3.37;;;;;;;27.09;39.55;99817.29;1721998;82;21004;-78
2021/08/23 08:57:37;;;;;;;7.67;4.10;;;;;;;26.86;39.03;99815.11;1732341;81;20900;-77
2021/08/23 09:00:08;;;;;;;5.87;3.72;;;;;;;26.72;39.91;99811.84;1703030;82;20944;-77
2021/08/23 09:02:59;;;;;;;4.85;3.70;;;;;;;26.61;40.65;99812.55;1728521;81;49505;-77
2021/08/23 09:05:37;;;;;;;5.83;4.12;;;;;;;26.57;41.11;99816.81;1729471;81;21526;-76
2021/08/23 09:08:09;;;;;;;8.00;4.22;;;;;;;26.46;41.03;99809.72;1681298;82;20991;-76
2021/08/23 09:10:42;;;;;;;8.57;4.23;;;;;;;26.39;41.27;99809.78;1767193;80;20928;-77
2021/08/23 09:13:18;;;;;;;9.70;3.80;;;;;;;26.27;41.82;99811.86;1741323;81;20979;-77
2021/08/23 09:15:56;;;;;;;6.83;4.50;;;;;;;26.18;41.95;99805.91;1724479;82;23352;-76
2021/08/23 09:18:30;;;;;;;7.53;4.33;;;;;;;26.14;42.85;99802.33;1725148;82;20999;-77
2021/08/23 09:21:05;;;;;;;5.72;4.20;;;;;;;26.21;42.04;99800.06;1716615;81;21145;-76
2021/08/23 09:23:44;;;;;;;5.60;4.20;;;;;;;26.37;42.29;99796.73;1752317;81;20975;-76
2021/08/23 09:26:17;;;;;;;8.15;5.67;;;;;;;26.46;41.83;99792.83;1753271;81;20963;-76
2021/08/23 09:29:06;;;;;;;6.62;3.95;;;;;;;26.54;42.50;99784.50;1730052;80;21105;-73
2021/08/23 09:31:38;;;;;;;6.35;3.77;;;;;;;26.74;41.51;99776.22;1724737;82;20966;-77
2021/08/23 09:34:15;;;;;;;;;;;;;;;26.94;41.20;99767.33;1733206;81;21877;-76
2021/08/23 09:36:46;;;;;;;6.05;4.17;;;;;;;27.07;39.16;99763.38;1724629;82;20099;-77
2021/08/23 09:39:18;;;;;;;13.80;4.58;;;;;;;26.90;39.66;99761.73;1727112;81;21007;-79
2021/08/23 09:41:46;;;;;;;8.50;4.33;;;;;;;26.71;41.14;99759.55;1697001;82;20924;-72
2021/08/23 09:44:18;;;;;;;6.08;4.30;;;;;;;26.64;41.40;99760.43;1743974;81;20935;-68
2021/08/23 09:46:57;;;;;;;7.65;3.90;;;;;;;26.56;41.13;99756.73;1706900;81;20932;-70
2021/08/23 09:49:36;;;;;;;10.15;5.80;;;;;;;26.41;40.55;99754.67;1731532;81;22001;-69
2021/08/23 09:52:21;;;;;;;9.98;5.08;;;;;;;26.34;41.48;99748.31;1740576;81;20927;-71
2021/08/23 09:55:02;;;;;;;21.45;6.75;;;;;;;26.37;42.93;99751.70;1704392;82;20877;-75
2021/08/23 09:57:41;;;;;;;6.33;4.30;;;;;;;26.58;42.87;99758.48;1722311;81;20976;-67
2021/08/23 10:00:12;;;;;;;6.97;5.12;;;;;;;26.71;41.08;99765.19;1735803;81;20896;-69
2021/08/23 10:02:54;;;;;;;14.65;8.28;;;;;;;26.69;41.64;99761.19;1741358;81;20943;-88
2021/08/23 10:05:20;;;;;;;337.25;180.00;;;;;;;26.68;42.64;99768.84;1736639;81;21018;-69
2021/08/23 10:07:54;;;;;;;68.97;40.88;;;;;;;26.61;41.46;99766.10;1739122;81;21142;-72
2021/08/23 10:10:29;;;;;;;16.40;9.35;;;;;;;26.58;42.58;99773.97;1722045;82;20852;-68
2021/08/23 10:13:02;;;;;;;35.78;7.95;;;;;;;26.59;42.27;99770.74;1714086;82;20975;-68
2021/08/23 10:15:29;;;;;;;9.65;4.62;;;;;;;26.65;41.76;99769.67;1721124;82;21038;-69
2021/08/23 10:18:15;;;;;;;5.83;3.98;;;;;;;26.77;40.73;99766.93;1736664;80;20967;-70
2021/08/23 10:20:45;;;;;;;6.53;4.83;;;;;;;26.80;40.13;99771.11;1771077;80;21185;-73
2021/08/23 10:23:18;;;;;;;5.12;3.92;;;;;;;26.77;41.00;99778.99;1768590;79;21044;-72
2021/08/23 10:25:47;;;;;;;7.28;4.92;;;;;;;26.75;40.41;99779.22;1729327;81;20987;-72
2021/08/23 10:28:16;;;;;;;5.47;4.45;;;;;;;26.73;41.00;99785.27;1743219;80;20942;-73
2021/08/23 10:30:47;;;;;;;5.90;3.87;;;;;;;26.69;39.47;99783.72;1742781;80;21025;-69
2021/08/23 10:33:19;;;;;;;5.42;4.03;;;;;;;26.65;39.49;99782.34;1679442;83;20952;-71
2021/08/23 10:35:55;;;;;;;5.95;4.53;;;;;;;26.77;38.20;99784.62;1674811;83;21046;-71
2021/08/23 10:38:24;;;;;;;5.78;4.22;;;;;;;26.93;39.57;99784.84;1731607;80;21114;-72
2021/08/23 10:41:14;;;;;;;5.12;3.98;;;;;;;27.20;38.64;99781.30;1731562;80;21094;-72
2021/08/23 10:43:52;;;;;;;5.62;4.10;;;;;;;27.49;39.37;99783.12;1714424;81;21592;-70
2021/08/23 10:46:38;;;;;;;7.62;3.83;;;;;;;27.77;37.79;99776.26;1739230;81;21144;-69
2021/08/23 10:49:16;;;;;;;5.00;4.10;;;;;;;27.90;36.17;99771.62;1716809;81;20959;-71
2021/08/23 10:51:56;;;;;;;6.47;4.12;;;;;;;28.03;37.50;99769.79;1734040;80;21129;-69
2021/08/23 10:54:28;;;;;;;4.70;4.20;;;;;;;28.25;37.83;99770.25;1728057;81;21414;-69
2021/08/23 10:57:09;;;;;;;9.25;4.30;;;;;;;28.35;37.21;99769.23;1741878;81;20884;-69
2021/08/23 10:59:48;;;;;;;6.78;5.90;;;;;;;28.31;37.19;99767.73;1728653;81;21001;-68
2021/08/23 11:02:34;;;;;;;7.83;4.62;;;;;;;28.26;38.31;99766.20;1730504;81;20976;-69
2021/08/23 11:05:21;;;;;;;10.32;4.62;;;;;;;28.37;37.69;99762.55;1706536;81;21577;-70
2021/08/23 11:07:50;;;;;;;4.58;3.83;;;;;;;28.73;36.23;99756.22;1738175;80;21060;-73
2021/08/23 11:10:24;;;;;;;58.10;16.80;;;;;;;28.97;32.95;99752.09;1730203;81;21321;-70
2021/08/23 11:13:01;;;;;;;4.87;3.98;;;;;;;29.08;33.56;99751.26;1732266;80;20932;-72
2021/08/23 11:15:35;;;;;;;13.05;4.25;;;;;;;29.12;33.31;99751.18;1677658;83;21007;-68
2021/08/23 11:18:08;;;;;;;8.73;3.80;;;;;;;28.98;34.31;99750.86;1721488;80;21051;-72
2021/08/23 11:20:41;;;;;;;18.30;5.85;;;;;;;29.01;33.53;99747.78;1739089;82;21009;-71
2021/08/23 11:23:14;;;;;;;;;;;;;;;28.98;35.07;99749.45;1749378;80;20983;-69
2021/08/23 11:25:48;;;;;;;6.97;5.12;;;;;;;29.09;35.03;99752.84;1719910;81;20587;-71
2021/08/23 11:28:30;;;;;;;8.25;4.00;;;;;;;29.02;34.87;99745.14;1720987;81;20998;-71
2021/08/23 11:30:58;;;;;;;5.25;3.98;;;;;;;28.99;35.96;99746.80;1764467;80;21110;-69
2021/08/23 11:33:34;;;;;;;4.53;3.98;;;;;;;29.10;35.19;99745.17;1767472;80;21020;-68
2021/08/23 11:36:08;;;;;;;5.22;3.87;;;;;;;28.92;34.97;99744.92;1733802;80;20958;-68
2021/08/23 11:38:38;;;;;;;7.03;3.85;;;;;;;28.58;35.02;99745.81;1740112;80;21147;-69
2021/08/23 11:41:09;;;;;;;5.90;3.85;;;;;;;28.31;35.87;99745.16;1735444;81;22500;-70
2021/08/23 11:43:44;;;;;;;5.05;3.72;;;;;;;28.05;36.14;99746.78;1735007;80;21592;-71
2021/08/23 11:46:12;;;;;;;11.85;4.17;;;;;;;27.99;37.42;99737.22;1771414;80;21412;-73
2021/08/23 11:48:47;;;;;;;7.15;3.58;;;;;;;28.18;36.66;99737.89;1721868;82;20986;-73